sensor_id;sensor_type;location;lat;lon;timestamp;pressure;altitude;pressure_sealevel;temperature;humidity
8717;BME280;4395;48.554;8.820;2023-04-24T00:01:10;94928.75;;;10.33;100.00
8717;BME280;4395;48.554;8.820;2023-04-24T00:03:14;94922.84;;;10.31;100.00
8717;BME280;4395;48.554;8.820;2023-04-24T00:05:17;94928.75;;;10.33;100.00
8717;BME280;4395;48.554;8.820;2023-04-24T00:07:21;94918.78;;;10.39;100.00
8717;BME280;4395;48.554;8.820;2023-04-24T00:09:24;94858.75;;;10.04;100.00
8717;BME280;4395;48.554;8.820;2023-04-24T00:11:27;94919.09;;;10.32;100.00
8717;BME280;4395;48.554;8.820;2023-04-24T00:13:30;94919.63;;;10.29;100.00
8717;BME280;4395;48.554;8.820;2023-04-24T00:15:33;94902.19;;;10.21;100.00
8717;BME280;4395;48.554;8.820;2023-04-24T00:17:36;94934.66;;;10.35;100.00
8717;BME280;4395;48.554;8.820;2023-04-24T00:19:38;94930.88;;;10.36;100.00
8717;BME280;4395;48.554;8.820;2023-04-24T00:21:42;94936.25;;;10.36;100.00
8717;BME280;4395;48.554;8.820;2023-04-24T00:23:46;94913.47;;;10.23;100.00
8717;BME280;4395;48.554;8.820;2023-04-24T00:25:48;94824.22;;;9.72;100.00
8717;BME280;4395;48.554;8.820;2023-04-24T00:27:51;94924.97;;;10.39;100.00
8717;BME280;4395;48.554;8.820;2023-04-24T00:29:54;94885.00;;;10.17;100.00
8717;BME280;4395;48.554;8.820;2023-04-24T00:31:57;94927.41;;;10.41;100.00
8717;BME280;4395;48.554;8.820;2023-04-24T00:34:00;94902.16;;;10.31;100.00
8717;BME280;4395;48.554;8.820;2023-04-24T00:36:03;94911.81;;;10.43;100.00
8717;BME280;4395;48.554;8.820;2023-04-24T00:38:07;94834.09;;;9.92;100.00
8717;BME280;4395;48.554;8.820;2023-04-24T00:40:11;94911.81;;;10.43;100.00
8717;BME280;4395;48.554;8.820;2023-04-24T00:42:14;94867.84;;;10.13;100.00
8717;BME280;4395;48.554;8.820;2023-04-24T00:44:17;94896.53;;;10.28;100.00
8717;BME280;4395;48.554;8.820;2023-04-24T00:46:20;94883.13;;;10.13;100.00
8717;BME280;4395;48.554;8.820;2023-04-24T00:48:24;94903.75;;;10.38;100.00
8717;BME280;4395;48.554;8.820;2023-04-24T00:50:28;94901.88;;;10.38;100.00
8717;BME280;4395;48.554;8.820;2023-04-24T00:52:32;94902.94;;;10.37;100.00
8717;BME280;4395;48.554;8.820;2023-04-24T00:54:35;94888.50;;;10.28;100.00
8717;BME280;4395;48.554;8.820;2023-04-24T00:56:39;94888.47;;;10.33;100.00
8717;BME280;4395;48.554;8.820;2023-04-24T00:58:44;94898.38;;;10.38;100.00
8717;BME280;4395;48.554;8.820;2023-04-24T01:00:48;94893.84;;;10.33;100.00
8717;BME280;4395;48.554;8.820;2023-04-24T01:02:52;94877.22;;;10.26;100.00
8717;BME280;4395;48.554;8.820;2023-04-24T01:04:55;94891.41;;;10.42;100.00
8717;BME280;4395;48.554;8.820;2023-04-24T01:06:58;94899.19;;;10.38;100.00
8717;BME280;4395;48.554;8.820;2023-04-24T01:09:02;94891.69;;;10.40;100.00
8717;BME280;4395;48.554;8.820;2023-04-24T01:11:05;94874.22;;;10.32;100.00
8717;BME280;4395;48.554;8.820;2023-04-24T01:13:09;94895.97;;;10.46;100.00
8717;BME280;4395;48.554;8.820;2023-04-24T01:15:12;94896.75;;;10.52;100.00
8717;BME280;4395;48.554;8.820;2023-04-24T01:17:16;94837.22;;;10.14;100.00
8717;BME280;4395;48.554;8.820;2023-04-24T01:19:19;94862.72;;;10.22;100.00
8717;BME280;4395;48.554;8.820;2023-04-24T01:21:23;94892.19;;;10.47;100.00
8717;BME280;4395;48.554;8.820;2023-04-24T01:23:28;94828.41;;;10.04;100.00
8717;BME280;4395;48.554;8.820;2023-04-24T01:25:31;94889.50;;;10.47;100.00
8717;BME280;4395;48.554;8.820;2023-04-24T01:27:33;94889.78;;;10.46;100.00
8717;BME280;4395;48.554;8.820;2023-04-24T01:29:36;94897.28;;;10.49;100.00
8717;BME280;4395;48.554;8.820;2023-04-24T01:31:40;94898.69;;;10.16;100.00
8717;BME280;4395;48.554;8.820;2023-04-24T01:33:42;94836.97;;;10.11;100.00
8717;BME280;4395;48.554;8.820;2023-04-24T01:35:45;94889.50;;;10.47;100.00
8717;BME280;4395;48.554;8.820;2023-04-24T01:37:48;94892.16;;;10.52;100.00
8717;BME280;4395;48.554;8.820;2023-04-24T01:39:53;94888.72;;;10.42;100.00
8717;BME280;4395;48.554;8.820;2023-04-24T01:41:56;94763.34;;;9.67;100.00
8717;BME280;4395;48.554;8.820;2023-04-24T01:43:59;94882.56;;;10.41;100.00
8717;BME280;4395;48.554;8.820;2023-04-24T01:46:02;94884.69;;;10.39;100.00
8717;BME280;4395;48.554;8.820;2023-04-24T01:48:05;94827.03;;;10.11;100.00
8717;BME280;4395;48.554;8.820;2023-04-24T01:50:09;94828.91;;;10.11;100.00
8717;BME280;4395;48.554;8.820;2023-04-24T01:52:13;94866.97;;;10.33;100.00
8717;BME280;4395;48.554;8.820;2023-04-24T01:54:16;94870.75;;;10.32;100.00
8717;BME280;4395;48.554;8.820;2023-04-24T01:56:21;94878.28;;;10.30;100.00
8717;BME280;4395;48.554;8.820;2023-04-24T01:58:25;94875.34;;;10.26;100.00
8717;BME280;4395;48.554;8.820;2023-04-24T02:00:27;94876.41;;;10.25;100.00
8717;BME280;4395;48.554;8.820;2023-04-24T02:02:30;94876.16;;;10.22;100.00
8717;BME280;4395;48.554;8.820;2023-04-24T02:04:34;94880.44;;;10.23;100.00
8717;BME280;4395;48.554;8.820;2023-04-24T02:06:36;94872.66;;;10.16;100.00
8717;BME280;4395;48.554;8.820;2023-04-24T02:08:39;94853.91;;;10.01;100.00
8717;BME280;4395;48.554;8.820;2023-04-24T02:10:42;94878.31;;;10.15;100.00
8717;BME280;4395;48.554;8.820;2023-04-24T02:12:47;94880.44;;;10.18;100.00
8717;BME280;4395;48.554;8.820;2023-04-24T02:14:49;94836.50;;;9.93;100.00
8717;BME280;4395;48.554;8.820;2023-04-24T02:16:52;94879.63;;;10.17;100.00
8717;BME280;4395;48.554;8.820;2023-04-24T02:18:55;94876.16;;;10.17;100.00
8717;BME280;4395;48.554;8.820;2023-04-24T02:20:58;94878.31;;;10.10;100.00
8717;BME280;4395;48.554;8.820;2023-04-24T02:23:01;94881.00;;;10.20;100.00
8717;BME280;4395;48.554;8.820;2023-04-24T02:25:05;94878.84;;;10.17;100.00
8717;BME280;4395;48.554;8.820;2023-04-24T02:27:08;94875.09;;;10.13;100.00
8717;BME280;4395;48.554;8.820;2023-04-24T02:29:12;94867.06;;;10.08;100.00
8717;BME280;4395;48.554;8.820;2023-04-24T02:31:15;94797.69;;;9.60;100.00
8717;BME280;4395;48.554;8.820;2023-04-24T02:33:18;94842.72;;;9.74;100.00
8717;BME280;4395;48.554;8.820;2023-04-24T02:35:21;94880.53;;;9.82;100.00
8717;BME280;4395;48.554;8.820;2023-04-24T02:37:24;94868.97;;;9.97;100.00
8717;BME280;4395;48.554;8.820;2023-04-24T02:39:27;94866.00;;;10.04;100.00
8717;BME280;4395;48.554;8.820;2023-04-24T02:41:29;94825.28;;;9.76;100.00
8717;BME280;4395;48.554;8.820;2023-04-24T02:43:34;94876.75;;;9.98;100.00
8717;BME280;4395;48.554;8.820;2023-04-24T02:45:38;94794.50;;;9.53;100.00
8717;BME280;4395;48.554;8.820;2023-04-24T02:47:41;94876.72;;;10.04;100.00
8717;BME280;4395;48.554;8.820;2023-04-24T02:49:44;94875.13;;;9.97;100.00
8717;BME280;4395;48.554;8.820;2023-04-24T02:51:47;94875.13;;;10.03;100.00
8717;BME280;4395;48.554;8.820;2023-04-24T02:53:50;94879.97;;;10.00;100.00
8717;BME280;4395;48.554;8.820;2023-04-24T02:55:53;94872.19;;;9.99;100.00
8717;BME280;4395;48.554;8.820;2023-04-24T02:57:56;94875.13;;;10.03;100.00
8717;BME280;4395;48.554;8.820;2023-04-24T02:59:58;94851.00;;;9.87;100.00
8717;BME280;4395;48.554;8.820;2023-04-24T03:02:03;94860.91;;;10.02;100.00
8717;BME280;4395;48.554;8.820;2023-04-24T03:04:05;94833.88;;;9.73;100.00
8717;BME280;4395;48.554;8.820;2023-04-24T03:06:09;94881.28;;;10.03;100.00
8717;BME280;4395;48.554;8.820;2023-04-24T03:08:12;94875.94;;;9.98;100.00
8717;BME280;4395;48.554;8.820;2023-04-24T03:10:16;94874.06;;;9.93;100.00
8717;BME280;4395;48.554;8.820;2023-04-24T03:12:19;94876.47;;;10.00;100.00
8717;BME280;4395;48.554;8.820;2023-04-24T03:14:22;94869.78;;;9.97;100.00
8717;BME280;4395;48.554;8.820;2023-04-24T03:16:25;94872.44;;;9.97;100.00
8717;BME280;4395;48.554;8.820;2023-04-24T03:18:30;94866.56;;;9.90;100.00
8717;BME280;4395;48.554;8.820;2023-04-24T03:20:33;94862.28;;;9.89;100.00
8717;BME280;4395;48.554;8.820;2023-04-24T03:22:38;94732.16;;;8.97;100.00
8717;BME280;4395;48.554;8.820;2023-04-24T03:24:42;94843.88;;;9.42;100.00
8717;BME280;4395;48.554;8.820;2023-04-24T03:26:46;94872.28;;;9.38;100.00
8717;BME280;4395;48.554;8.820;2023-04-24T03:29:07;94872.03;;;9.34;100.00
8717;BME280;4395;48.554;8.820;2023-04-24T03:31:10;94868.00;;;9.22;100.00
8717;BME280;4395;48.554;8.820;2023-04-24T03:33:13;94869.59;;;9.43;100.00
8717;BME280;4395;48.554;8.820;2023-04-24T03:35:28;94854.31;;;9.49;100.00
8717;BME280;4395;48.554;8.820;2023-04-24T03:37:35;94853.78;;;9.52;100.00
8717;BME280;4395;48.554;8.820;2023-04-24T03:40:00;94858.06;;;9.53;100.00
8717;BME280;4395;48.554;8.820;2023-04-24T03:42:04;94820.00;;;9.35;100.00
8717;BME280;4395;48.554;8.820;2023-04-24T03:44:19;94848.41;;;9.47;100.00
8717;BME280;4395;48.554;8.820;2023-04-24T03:46:21;94850.84;;;9.43;100.00
8717;BME280;4395;48.554;8.820;2023-04-24T03:48:28;94849.22;;;9.42;100.00
8717;BME280;4395;48.554;8.820;2023-04-24T03:50:33;94858.63;;;9.40;100.00
8717;BME280;4395;48.554;8.820;2023-04-24T03:52:36;94861.28;;;9.45;100.00
8717;BME280;4395;48.554;8.820;2023-04-24T03:54:39;94866.66;;;9.34;100.00
8717;BME280;4395;48.554;8.820;2023-04-24T03:56:42;94855.41;;;9.38;100.00
8717;BME280;4395;48.554;8.820;2023-04-24T03:58:45;94862.38;;;9.39;100.00
8717;BME280;4395;48.554;8.820;2023-04-24T04:00:48;94868.53;;;9.39;100.00
8717;BME280;4395;48.554;8.820;2023-04-24T04:03:15;94879.00;;;9.46;100.00
8717;BME280;4395;48.554;8.820;2023-04-24T04:05:18;94856.75;;;9.30;100.00
8717;BME280;4395;48.554;8.820;2023-04-24T04:07:23;94881.66;;;9.51;100.00
8717;BME280;4395;48.554;8.820;2023-04-24T04:09:26;94895.63;;;9.48;100.00
8717;BME280;4395;48.554;8.820;2023-04-24T04:11:30;94898.84;;;9.24;100.00
8717;BME280;4395;48.554;8.820;2023-04-24T04:13:33;94839.84;;;8.74;100.00
8717;BME280;4395;48.554;8.820;2023-04-24T04:15:36;94882.75;;;9.04;100.00
8717;BME280;4395;48.554;8.820;2023-04-24T04:17:39;94901.25;;;9.31;100.00
8717;BME280;4395;48.554;8.820;2023-04-24T04:19:42;94905.28;;;9.39;100.00
8717;BME280;4395;48.554;8.820;2023-04-24T04:21:46;94900.44;;;9.46;100.00
8717;BME280;4395;48.554;8.820;2023-04-24T04:24:18;94911.69;;;9.17;100.00
8717;BME280;4395;48.554;8.820;2023-04-24T04:26:22;94919.72;;;9.02;100.00
8717;BME280;4395;48.554;8.820;2023-04-24T04:28:41;94915.19;;;9.08;100.00
8717;BME280;4395;48.554;8.820;2023-04-24T04:30:47;94909.81;;;9.02;100.00
8717;BME280;4395;48.554;8.820;2023-04-24T04:32:50;94928.00;;;8.90;100.00
8717;BME280;4395;48.554;8.820;2023-04-24T04:34:53;94916.25;;;9.01;100.00
8717;BME280;4395;48.554;8.820;2023-04-24T04:36:59;94920.25;;;8.94;100.00
8717;BME280;4395;48.554;8.820;2023-04-24T04:39:26;94917.28;;;8.85;100.00
8717;BME280;4395;48.554;8.820;2023-04-24T04:41:35;94927.75;;;8.92;100.00
8717;BME280;4395;48.554;8.820;2023-04-24T04:43:39;94940.09;;;9.03;100.00
8717;BME280;4395;48.554;8.820;2023-04-24T04:45:42;94934.16;;;8.81;100.00
8717;BME280;4395;48.554;8.820;2023-04-24T04:48:05;94937.66;;;8.86;100.00
8717;BME280;4395;48.554;8.820;2023-04-24T04:50:10;94849.59;;;8.22;100.00
8717;BME280;4395;48.554;8.820;2023-04-24T04:52:13;94960.94;;;8.76;100.00
8717;BME280;4395;48.554;8.820;2023-04-24T04:54:16;94953.97;;;8.80;100.00
8717;BME280;4395;48.554;8.820;2023-04-24T04:56:21;94957.63;;;8.53;100.00
8717;BME280;4395;48.554;8.820;2023-04-24T04:58:24;94964.91;;;8.63;100.00
8717;BME280;4395;48.554;8.820;2023-04-24T05:00:31;94972.13;;;8.62;100.00
8717;BME280;4395;48.554;8.820;2023-04-24T05:02:41;94971.63;;;8.70;100.00
8717;BME280;4395;48.554;8.820;2023-04-24T05:04:45;94968.34;;;8.53;100.00
8717;BME280;4395;48.554;8.820;2023-04-24T05:06:48;94985.03;;;8.76;100.00
8717;BME280;4395;48.554;8.820;2023-04-24T05:08:52;94974.38;;;8.96;100.00
8717;BME280;4395;48.554;8.820;2023-04-24T05:11:09;94975.38;;;8.69;100.00
8717;BME280;4395;48.554;8.820;2023-04-24T05:13:15;94985.00;;;8.70;100.00
8717;BME280;4395;48.554;8.820;2023-04-24T05:15:23;94985.22;;;8.54;100.00
8717;BME280;4395;48.554;8.820;2023-04-24T05:17:26;94986.06;;;8.64;100.00
8717;BME280;4395;48.554;8.820;2023-04-24T05:19:31;94978.50;;;8.46;100.00
8717;BME280;4395;48.554;8.820;2023-04-24T05:21:37;94924.59;;;8.32;100.00
8717;BME280;4395;48.554;8.820;2023-04-24T05:23:42;94994.38;;;8.68;100.00
8717;BME280;4395;48.554;8.820;2023-04-24T05:25:53;94998.16;;;8.72;100.00
8717;BME280;4395;48.554;8.820;2023-04-24T05:27:56;95004.59;;;8.76;100.00
8717;BME280;4395;48.554;8.820;2023-04-24T05:30:00;95007.88;;;8.93;100.00
8717;BME280;4395;48.554;8.820;2023-04-24T05:32:03;95003.06;;;9.06;100.00
8717;BME280;4395;48.554;8.820;2023-04-24T05:34:06;94998.09;;;8.62;100.00
8717;BME280;4395;48.554;8.820;2023-04-24T05:36:13;95000.34;;;8.85;100.00
8717;BME280;4395;48.554;8.820;2023-04-24T05:38:16;94879.56;;;8.19;100.00
8717;BME280;4395;48.554;8.820;2023-04-24T05:40:21;95003.84;;;8.96;100.00
8717;BME280;4395;48.554;8.820;2023-04-24T05:42:24;95009.97;;;8.81;100.00
8717;BME280;4395;48.554;8.820;2023-04-24T05:44:26;95022.19;;;8.57;100.00
8717;BME280;4395;48.554;8.820;2023-04-24T05:46:31;95027.81;;;8.60;100.00
8717;BME280;4395;48.554;8.820;2023-04-24T05:48:34;95032.13;;;8.61;100.00
8717;BME280;4395;48.554;8.820;2023-04-24T05:50:37;95012.03;;;8.64;100.00
8717;BME280;4395;48.554;8.820;2023-04-24T05:52:40;95030.38;;;8.92;100.00
8717;BME280;4395;48.554;8.820;2023-04-24T05:54:56;94942.63;;;8.52;100.00
8717;BME280;4395;48.554;8.820;2023-04-24T05:57:04;95037.72;;;9.27;100.00
8717;BME280;4395;48.554;8.820;2023-04-24T05:59:22;95032.38;;;9.38;100.00
8717;BME280;4395;48.554;8.820;2023-04-24T06:01:26;94983.28;;;9.17;100.00
8717;BME280;4395;48.554;8.820;2023-04-24T06:03:41;95038.31;;;9.60;100.00
8717;BME280;4395;48.554;8.820;2023-04-24T06:05:44;95042.88;;;9.64;100.00
8717;BME280;4395;48.554;8.820;2023-04-24T06:07:47;95041.81;;;9.71;100.00
8717;BME280;4395;48.554;8.820;2023-04-24T06:09:51;94961.03;;;9.31;100.00
8717;BME280;4395;48.554;8.820;2023-04-24T06:11:54;95040.72;;;9.92;100.00
8717;BME280;4395;48.554;8.820;2023-04-24T06:14:03;95041.53;;;10.03;100.00
8717;BME280;4395;48.554;8.820;2023-04-24T06:16:12;94964.81;;;9.61;100.00
8717;BME280;4395;48.554;8.820;2023-04-24T06:18:19;95030.81;;;10.23;100.00
8717;BME280;4395;48.554;8.820;2023-04-24T06:20:24;95032.41;;;10.24;100.00
8717;BME280;4395;48.554;8.820;2023-04-24T06:22:27;95030.25;;;10.46;100.00
8717;BME280;4395;48.554;8.820;2023-04-24T06:24:31;95009.03;;;10.50;100.00
8717;BME280;4395;48.554;8.820;2023-04-24T06:26:34;95038.81;;;10.63;100.00
8717;BME280;4395;48.554;8.820;2023-04-24T06:28:36;95032.97;;;10.41;100.00
8717;BME280;4395;48.554;8.820;2023-04-24T06:30:39;95010.13;;;9.98;100.00
8717;BME280;4395;48.554;8.820;2023-04-24T06:32:42;95047.97;;;10.32;100.00
8717;BME280;4395;48.554;8.820;2023-04-24T06:34:45;95037.78;;;10.49;100.00
8717;BME280;4395;48.554;8.820;2023-04-24T06:36:49;95038.84;;;10.33;100.00
8717;BME280;4395;48.554;8.820;2023-04-24T06:38:52;95042.06;;;10.15;100.00
8717;BME280;4395;48.554;8.820;2023-04-24T06:40:55;95047.69;;;10.18;100.00
8717;BME280;4395;48.554;8.820;2023-04-24T06:42:57;95052.81;;;10.35;100.00
8717;BME280;4395;48.554;8.820;2023-04-24T06:45:01;95050.13;;;10.30;100.00
8717;BME280;4395;48.554;8.820;2023-04-24T06:47:04;95050.94;;;10.30;100.00
8717;BME280;4395;48.554;8.820;2023-04-24T06:49:07;95061.41;;;10.27;100.00
8717;BME280;4395;48.554;8.820;2023-04-24T06:51:10;95060.84;;;10.15;100.00
8717;BME280;4395;48.554;8.820;2023-04-24T06:53:14;95064.34;;;10.05;100.00
8717;BME280;4395;48.554;8.820;2023-04-24T06:55:17;95061.63;;;9.59;100.00
8717;BME280;4395;48.554;8.820;2023-04-24T06:57:20;95067.97;;;9.18;100.00
8717;BME280;4395;48.554;8.820;2023-04-24T06:59:23;95068.72;;;9.03;100.00
8717;BME280;4395;48.554;8.820;2023-04-24T07:01:26;95082.34;;;8.91;100.00
8717;BME280;4395;48.554;8.820;2023-04-24T07:03:28;95074.53;;;8.80;100.00
8717;BME280;4395;48.554;8.820;2023-04-24T07:05:32;95042.84;;;8.66;100.00
8717;BME280;4395;48.554;8.820;2023-04-24T07:07:36;95098.22;;;9.03;100.00
8717;BME280;4395;48.554;8.820;2023-04-24T07:09:43;95042.97;;;8.97;100.00
8717;BME280;4395;48.554;8.820;2023-04-24T07:11:47;95084.38;;;9.31;100.00
8717;BME280;4395;48.554;8.820;2023-04-24T07:13:50;95082.78;;;9.35;100.00
8717;BME280;4395;48.554;8.820;2023-04-24T07:15:53;95091.41;;;9.58;100.00
8717;BME280;4395;48.554;8.820;2023-04-24T07:17:57;95092.78;;;9.76;100.00
8717;BME280;4395;48.554;8.820;2023-04-24T07:20:00;95050.34;;;9.47;100.00
8717;BME280;4395;48.554;8.820;2023-04-24T07:22:03;95109.19;;;9.99;100.00
8717;BME280;4395;48.554;8.820;2023-04-24T07:24:06;95091.63;;;9.36;100.00
8717;BME280;4395;48.554;8.820;2023-04-24T07:26:13;95098.22;;;9.08;100.00
8717;BME280;4395;48.554;8.820;2023-04-24T07:28:16;95109.31;;;9.32;100.00
8717;BME280;4395;48.554;8.820;2023-04-24T07:30:19;95105.91;;;9.57;100.00
8717;BME280;4395;48.554;8.820;2023-04-24T07:32:22;95106.16;;;9.60;100.00
8717;BME280;4395;48.554;8.820;2023-04-24T07:34:28;95108.59;;;9.62;100.00
8717;BME280;4395;48.554;8.820;2023-04-24T07:36:31;95023.25;;;9.33;100.00
8717;BME280;4395;48.554;8.820;2023-04-24T07:38:34;95112.13;;;9.98;100.00
8717;BME280;4395;48.554;8.820;2023-04-24T07:40:36;95113.22;;;10.07;100.00
8717;BME280;4395;48.554;8.820;2023-04-24T07:42:41;95123.13;;;9.91;100.00
8717;BME280;4395;48.554;8.820;2023-04-24T07:44:45;95122.56;;;9.74;100.00
8717;BME280;4395;48.554;8.820;2023-04-24T07:46:49;95149.13;;;9.76;100.00
8717;BME280;4395;48.554;8.820;2023-04-24T07:48:51;95128.22;;;9.88;100.00
8717;BME280;4395;48.554;8.820;2023-04-24T07:51:12;95131.59;;;9.43;100.00
8717;BME280;4395;48.554;8.820;2023-04-24T07:53:15;95147.25;;;9.76;100.00
8717;BME280;4395;48.554;8.820;2023-04-24T07:55:17;95130.16;;;9.15;100.00
8717;BME280;4395;48.554;8.820;2023-04-24T07:57:24;95184.06;;;9.23;100.00
8717;BME280;4395;48.554;8.820;2023-04-24T07:59:28;95157.56;;;9.27;100.00
8717;BME280;4395;48.554;8.820;2023-04-24T08:01:31;95160.75;;;9.24;100.00
8717;BME280;4395;48.554;8.820;2023-04-24T08:03:34;95151.88;;;9.18;100.00
8717;BME280;4395;48.554;8.820;2023-04-24T08:05:37;95165.16;;;9.50;100.00
8717;BME280;4395;48.554;8.820;2023-04-24T08:07:41;95148.84;;;9.72;100.00
8717;BME280;4395;48.554;8.820;2023-04-24T08:09:44;95140.84;;;10.03;100.00
8717;BME280;4395;48.554;8.820;2023-04-24T08:11:47;95144.66;;;10.22;100.00
8717;BME280;4395;48.554;8.820;2023-04-24T08:13:50;95065.94;;;9.65;99.59
8717;BME280;4395;48.554;8.820;2023-04-24T08:15:54;95142.44;;;9.78;100.00
8717;BME280;4395;48.554;8.820;2023-04-24T08:17:57;95065.50;;;9.01;96.82
8717;BME280;4395;48.554;8.820;2023-04-24T08:20:00;95164.69;;;9.68;96.98
8717;BME280;4395;48.554;8.820;2023-04-24T08:22:03;95159.38;;;10.09;96.94
8717;BME280;4395;48.554;8.820;2023-04-24T08:24:06;95155.13;;;10.28;98.31
8717;BME280;4395;48.554;8.820;2023-04-24T08:26:09;95000.13;;;9.02;93.19
8717;BME280;4395;48.554;8.820;2023-04-24T08:28:13;95163.38;;;9.86;90.84
8717;BME280;4395;48.554;8.820;2023-04-24T08:30:21;95159.97;;;10.21;95.73
8717;BME280;4395;48.554;8.820;2023-04-24T08:32:26;95185.69;;;10.12;97.33
8717;BME280;4395;48.554;8.820;2023-04-24T08:34:30;95138.69;;;9.84;100.00
8717;BME280;4395;48.554;8.820;2023-04-24T08:36:33;95158.50;;;9.73;100.00
8717;BME280;4395;48.554;8.820;2023-04-24T08:38:47;95115.47;;;9.32;100.00
8717;BME280;4395;48.554;8.820;2023-04-24T08:40:50;95179.50;;;9.96;100.00
8717;BME280;4395;48.554;8.820;2023-04-24T08:42:54;95195.63;;;10.17;99.58
8717;BME280;4395;48.554;8.820;2023-04-24T08:44:57;95189.69;;;9.89;100.00
8717;BME280;4395;48.554;8.820;2023-04-24T08:47:00;95166.03;;;9.71;100.00
8717;BME280;4395;48.554;8.820;2023-04-24T08:49:05;95183.06;;;10.22;99.11
8717;BME280;4395;48.554;8.820;2023-04-24T08:51:08;95188.75;;;10.56;99.93
8717;BME280;4395;48.554;8.820;2023-04-24T08:53:12;95190.84;;;10.29;92.75
8717;BME280;4395;48.554;8.820;2023-04-24T08:55:15;95184.41;;;10.30;98.12
8717;BME280;4395;48.554;8.820;2023-04-24T08:57:19;95203.22;;;10.35;94.47
8717;BME280;4395;48.554;8.820;2023-04-24T08:59:22;95200.53;;;10.30;90.97
8717;BME280;4395;48.554;8.820;2023-04-24T09:01:26;95181.72;;;10.25;92.31
8717;BME280;4395;48.554;8.820;2023-04-24T09:03:31;95253.22;;;10.51;92.15
8717;BME280;4395;48.554;8.820;2023-04-24T09:05:37;95190.88;;;10.80;87.55
8717;BME280;4395;48.554;8.820;2023-04-24T09:07:44;95191.09;;;11.09;89.37
8717;BME280;4395;48.554;8.820;2023-04-24T09:09:50;95208.84;;;10.39;87.16
8717;BME280;4395;48.554;8.820;2023-04-24T09:11:53;95175.75;;;10.08;89.35
8717;BME280;4395;48.554;8.820;2023-04-24T09:13:57;95188.47;;;10.78;88.18
8717;BME280;4395;48.554;8.820;2023-04-24T09:16:00;95203.78;;;10.83;82.85
8717;BME280;4395;48.554;8.820;2023-04-24T09:18:04;95204.03;;;10.97;78.39
8717;BME280;4395;48.554;8.820;2023-04-24T09:20:08;95193.56;;;10.85;77.67
8717;BME280;4395;48.554;8.820;2023-04-24T09:22:12;95231.19;;;10.44;82.85
8717;BME280;4395;48.554;8.820;2023-04-24T09:24:16;95206.19;;;10.94;82.48
8717;BME280;4395;48.554;8.820;2023-04-24T09:26:21;95144.09;;;10.86;83.20
8717;BME280;4395;48.554;8.820;2023-04-24T09:28:26;95219.84;;;11.18;81.50
8717;BME280;4395;48.554;8.820;2023-04-24T09:30:29;95223.59;;;11.27;73.68
8717;BME280;4395;48.554;8.820;2023-04-24T09:32:33;95218.25;;;11.12;80.21
8717;BME280;4395;48.554;8.820;2023-04-24T09:34:35;95229.50;;;11.35;73.69
8717;BME280;4395;48.554;8.820;2023-04-24T09:36:40;95235.72;;;11.10;73.14
8717;BME280;4395;48.554;8.820;2023-04-24T09:38:44;95234.31;;;11.43;76.07
8717;BME280;4395;48.554;8.820;2023-04-24T09:40:47;95235.47;;;10.96;73.12
8717;BME280;4395;48.554;8.820;2023-04-24T09:42:52;95243.28;;;10.72;77.63
8717;BME280;4395;48.554;8.820;2023-04-24T09:44:55;95222.81;;;11.22;70.97
8717;BME280;4395;48.554;8.820;2023-04-24T09:47:12;95201.19;;;11.52;75.04
8717;BME280;4395;48.554;8.820;2023-04-24T09:49:17;95230.16;;;12.74;72.41
8717;BME280;4395;48.554;8.820;2023-04-24T09:51:34;95225.50;;;12.02;68.50
8717;BME280;4395;48.554;8.820;2023-04-24T09:53:38;95232.75;;;12.06;65.75
8717;BME280;4395;48.554;8.820;2023-04-24T09:55:47;95226.25;;;12.12;65.96
8717;BME280;4395;48.554;8.820;2023-04-24T09:57:54;95234.25;;;11.63;73.63
8717;BME280;4395;48.554;8.820;2023-04-24T09:59:57;95256.00;;;11.77;67.59
8717;BME280;4395;48.554;8.820;2023-04-24T10:02:00;95210.72;;;11.14;70.61
8717;BME280;4395;48.554;8.820;2023-04-24T10:04:03;95243.72;;;11.45;70.06
8717;BME280;4395;48.554;8.820;2023-04-24T10:06:07;95256.69;;;11.18;71.61
8717;BME280;4395;48.554;8.820;2023-04-24T10:08:12;95185.78;;;10.58;74.57
8717;BME280;4395;48.554;8.820;2023-04-24T10:10:16;95216.06;;;11.24;73.61
8717;BME280;4395;48.554;8.820;2023-04-24T10:12:21;95262.16;;;11.93;71.06
8717;BME280;4395;48.554;8.820;2023-04-24T10:14:24;95260.22;;;10.88;74.70
8717;BME280;4395;48.554;8.820;2023-04-24T10:16:27;95093.88;;;9.80;79.74
8717;BME280;4395;48.554;8.820;2023-04-24T10:18:31;95265.59;;;11.08;81.54
8717;BME280;4395;48.554;8.820;2023-04-24T10:20:35;95172.59;;;10.31;85.44
8717;BME280;4395;48.554;8.820;2023-04-24T10:22:39;95273.38;;;10.79;86.55
8717;BME280;4395;48.554;8.820;2023-04-24T10:24:43;95158.09;;;10.27;87.90
8717;BME280;4395;48.554;8.820;2023-04-24T10:26:46;95283.88;;;10.96;90.80
8717;BME280;4395;48.554;8.820;2023-04-24T10:28:52;95284.41;;;11.18;89.26
8717;BME280;4395;48.554;8.820;2023-04-24T10:30:55;95281.19;;;10.91;88.26
8717;BME280;4395;48.554;8.820;2023-04-24T10:32:59;95273.88;;;11.32;88.17
8717;BME280;4395;48.554;8.820;2023-04-24T10:35:02;95174.63;;;11.31;84.02
8717;BME280;4395;48.554;8.820;2023-04-24T10:37:05;95280.09;;;11.12;85.17
8717;BME280;4395;48.554;8.820;2023-04-24T10:39:10;95289.53;;;11.00;84.32
8717;BME280;4395;48.554;8.820;2023-04-24T10:41:13;95280.88;;;11.33;90.09
8717;BME280;4395;48.554;8.820;2023-04-24T10:43:18;95282.22;;;12.20;83.50
8717;BME280;4395;48.554;8.820;2023-04-24T10:45:23;95286.97;;;11.84;79.22
8717;BME280;4395;48.554;8.820;2023-04-24T10:47:26;95296.16;;;11.63;82.78
8717;BME280;4395;48.554;8.820;2023-04-24T10:49:30;95295.91;;;11.54;84.33
8717;BME280;4395;48.554;8.820;2023-04-24T10:51:47;95287.06;;;12.68;80.69
8717;BME280;4395;48.554;8.820;2023-04-24T10:53:50;95198.78;;;11.51;80.61
8717;BME280;4395;48.554;8.820;2023-04-24T10:55:58;95253.06;;;11.78;83.30
8717;BME280;4395;48.554;8.820;2023-04-24T10:58:02;95316.06;;;12.42;78.62
8717;BME280;4395;48.554;8.820;2023-04-24T11:00:20;95242.66;;;12.16;78.27
8717;BME280;4395;48.554;8.820;2023-04-24T11:02:36;95256.66;;;12.18;81.95
8717;BME280;4395;48.554;8.820;2023-04-24T11:04:40;95316.00;;;11.98;77.33
8717;BME280;4395;48.554;8.820;2023-04-24T11:06:44;95287.91;;;12.14;76.54
8717;BME280;4395;48.554;8.820;2023-04-24T11:08:48;95293.34;;;12.04;78.94
8717;BME280;4395;48.554;8.820;2023-04-24T11:11:02;95308.81;;;11.57;78.56
8717;BME280;4395;48.554;8.820;2023-04-24T11:13:06;95322.03;;;11.18;82.25
8717;BME280;4395;48.554;8.820;2023-04-24T11:15:11;95312.31;;;11.48;83.36
8717;BME280;4395;48.554;8.820;2023-04-24T11:17:28;95324.72;;;11.44;81.87